Welcome to Northern Hawkes Bay. New Zealand.
PWS Header
      nz Flag



Hit Counter


W3C Valid W3C Valid logo


    Wairoa

Select any of the Stations below to visit their websites.










Historic Data from Weather Underground
Select the location of interest below. Wairoa is the default. Please have patience, this Data is slow to load in.
Northern Hawkes Bay Historical Data
Daily Summary for December 6, 2017 Units:  English    Metric   Both
« Previous Day
Next Day »
Daily Weekly Monthly Yearly Custom
  High: Low: Average:
Temperature: 72.9 °F 59.2 °F 66.9 °F
Dew Point: 66 °F 58.8 °F 62.6 °F
Humidity: 99% 67% 86%
Wind Speed: 11.4mph 0mph 3.1mph
Wind Gust: 16.8mph - -
Wind- - SSW
Pressure: 30.1 in 29.9 in -
Precipitation: 0 in    
Historical Graphs
 
 
Tabular Data for December 6, 2017
Time Temperature Dew Point Pressure Wind Wind Speed Wind Gust Humidity Rainfall Rate (Hourly) solar
00:02 67.1 °F 64.8 °F 29.9 in Calm   2.2 mph 92% 0 in 0 W/m2
00:07 67.1 °F 64.8 °F 30 in Calm   2.2 mph 92% 0 in 0 W/m2
00:12 66.9 °F 64.6 °F 30 in Calm   1.6 mph 92% 0 in 0 W/m2
00:17 66.7 °F 64.8 °F 30 in Calm   1.6 mph 93% 0 in 0 W/m2
00:22 66.6 °F 64.2 °F 30 in Calm   1.6 mph 92% 0 in 0 W/m2
00:27 66.6 °F 64.6 °F 30 in Calm   0.7 mph 93% 0 in 0 W/m2
00:32 66.4 °F 64.2 °F 30 in Calm   1.6 mph 93% 0 in 0 W/m2
00:37 66.4 °F 64.6 °F 30 in Calm   1.6 mph 94% 0 in 0 W/m2
00:42 66.2 °F 64.4 °F 30 in Calm   0.7 mph 94% 0 in 0 W/m2
00:47 66 °F 64.6 °F 30 in Calm   0.7 mph 95% 0 in 0 W/m2
00:52 65.7 °F 64.2 °F 30 in Calm   0.7 mph 95% 0 in 0 W/m2
01:02 65.5 °F 64.2 °F 29.9 in Calm     96% 0 in 0 W/m2
01:07 65.1 °F 64 °F 30 in Calm     96% 0 in 0 W/m2
01:12 64.9 °F 63.9 °F 30 in Calm     96% 0 in 0 W/m2
01:17 64.6 °F 63.3 °F 29.9 in Calm     96% 0 in 0 W/m2
01:22 64.2 °F 62.8 °F 30 in Calm     95% 0 in 0 W/m2
01:27 63.9 °F 62.8 °F 30 in Calm     96% 0 in 0 W/m2
01:32 63.7 °F 62.4 °F 30 in Calm     96% 0 in 0 W/m2
01:37 63.7 °F 62.8 °F 30 in Calm     97% 0 in 0 W/m2
01:42 63.5 °F 62.8 °F 30 in Calm     97% 0 in 0 W/m2
01:47 63.5 °F 62.8 °F 30 in Calm     97% 0 in 0 W/m2
01:52 63.7 °F 62.8 °F 30 in Calm     97% 0 in 0 W/m2
01:57 63.7 °F 62.8 °F 30 in Calm     97% 0 in 0 W/m2
02:02 63.7 °F 62.8 °F 30 in Calm     97% 0 in 0 W/m2
02:07 63.9 °F 63 °F 30 in Calm     97% 0 in 0 W/m2
02:12 63.9 °F 63 °F 30 in Calm     97% 0 in 0 W/m2
02:17 63.9 °F 63 °F 30 in Calm     97% 0 in 0 W/m2
02:22 63.9 °F 63 °F 30 in Calm     97% 0 in 0 W/m2
02:27 63.9 °F 63 °F 30 in Calm     97% 0 in 0 W/m2
02:32 63.9 °F 63 °F 30 in Calm     97% 0 in 0 W/m2
02:37 63.7 °F 62.8 °F 30 in Calm     97% 0 in 0 W/m2
02:42 63.5 °F 62.8 °F 30 in Calm     97% 0 in 0 W/m2
02:47 63.3 °F 62.4 °F 30 in Calm     97% 0 in 0 W/m2
02:52 63.3 °F 62.4 °F 30 in Calm     97% 0 in 0 W/m2
02:57 63.1 °F 62.2 °F 30 in Calm     97% 0 in 0 W/m2
03:02 62.8 °F 61.9 °F 30 in Calm     97% 0 in 0 W/m2
03:07 62.8 °F 61.9 °F 30 in Calm     97% 0 in 0 W/m2
03:12 62.6 °F 61.9 °F 30 in Calm     97% 0 in 0 W/m2
03:17 62.6 °F 61.9 °F 30 in Calm     97% 0 in 0 W/m2
03:22 62.6 °F 61.9 °F 30 in Calm     97% 0 in 0 W/m2
03:27 62.2 °F 61.7 °F 30 in Calm     98% 0 in 0 W/m2
03:32 62.2 °F 61.7 °F 30 in Calm     98% 0 in 0 W/m2
03:37 62.1 °F 61.5 °F 30 in Calm     98% 0 in 0 W/m2
03:42 61.9 °F 61.3 °F 30 in Calm     98% 0 in 0 W/m2
03:47 61.7 °F 61.2 °F 30 in Calm     98% 0 in 0 W/m2
03:52 61.9 °F 61.3 °F 30 in Calm     98% 0 in 0 W/m2
03:57 61.7 °F 61.2 °F 30 in Calm     98% 0 in 0 W/m2
04:02 61.3 °F 60.8 °F 30 in Calm     98% 0 in 0 W/m2
04:07 61.2 °F 60.6 °F 30 in Calm     98% 0 in 0 W/m2
04:12 61 °F 60.4 °F 30 in Calm     98% 0 in 0 W/m2
04:17 61 °F 60.4 °F 30 in Calm     98% 0 in 0 W/m2
04:22 60.8 °F 60.3 °F 30 in Calm     98% 0 in 0 W/m2
04:27 60.8 °F 60.3 °F 30 in Calm     98% 0 in 0 W/m2
04:32 60.8 °F 60.3 °F 30 in Calm     98% 0 in 0 W/m2
04:37 60.4 °F 60.3 °F 30 in Calm     99% 0 in 0 W/m2
04:42 60.6 °F 60.4 °F 30 in Calm     99% 0 in 0 W/m2
04:47 60.6 °F 60.4 °F 30 in Calm     99% 0 in 0 W/m2
04:52 60.6 °F 60.4 °F 30 in Calm     99% 0 in 0 W/m2
04:57 60.4 °F 60.3 °F 30 in Calm     99% 0 in 0 W/m2
05:02 60.4 °F 60.3 °F 30 in Calm     99% 0 in 0 W/m2
05:07 60.3 °F 60.1 °F 30 in Calm     99% 0 in 0 W/m2
05:12 60.1 °F 59.7 °F 30 in Calm     99% 0 in 0 W/m2
05:17 59.9 °F 59.5 °F 30 in Calm     99% 0 in 0 W/m2
05:23 59.9 °F 59.5 °F 30 in Calm     99% 0 in 0 W/m2
05:28 59.9 °F 59.5 °F 30 in Calm     99% 0 in 0 W/m2
05:33 59.7 °F 59.5 °F 30 in Calm     99% 0 in 0 W/m2
05:38 59.4 °F 59.2 °F 30 in Calm     99% 0 in 0 W/m2
05:43 59.2 °F 58.8 °F 30 in Calm     99% 0 in 1 W/m2
05:48 59.2 °F 58.8 °F 30 in Calm     99% 0 in 4 W/m2
05:53 59.2 °F 58.8 °F 30 in Calm     99% 0 in 7 W/m2
05:58 59.2 °F 58.8 °F 30 in Calm     99% 0 in 11 W/m2
06:03 59.4 °F 59.2 °F 30 in Calm     99% 0 in 17 W/m2
06:08 59.7 °F 59.5 °F 30 in Calm     99% 0 in 21 W/m2
06:13 59.7 °F 59.5 °F 30 in Calm     99% 0 in 26 W/m2
06:18 59.9 °F 59.5 °F 30 in Calm     99% 0 in 32 W/m2
06:23 60.3 °F 60.1 °F 30 in Calm     99% 0 in 49 W/m2
06:33 61 °F 60.4 °F 30 in Calm     98% 0 in 75 W/m2
06:38 61.2 °F 60.6 °F 30 in Calm     98% 0 in 83 W/m2
06:43 61.3 °F 60.8 °F 30 in Calm     98% 0 in 92 W/m2
06:48 61.9 °F 61.3 °F 30 in Calm     98% 0 in 100 W/m2
06:54 62.6 °F 61.9 °F 30 in Calm     97% 0 in 109 W/m2
06:59 63.3 °F 62.4 °F 30 in Calm     97% 0 in 118 W/m2
07:04 64.2 °F 63.1 °F 30 in Calm     96% 0 in 125 W/m2
07:09 65.3 °F 64.2 °F 30 in Calm     96% 0 in 117 W/m2
07:14 66.4 °F 63.7 °F 30 in Calm   0.7 mph 91% 0 in 143 W/m2
07:19 68 °F 64.8 °F 30 in Calm   0.7 mph 89% 0 in 154 W/m2
07:24 68.5 °F 64.2 °F 30 in Calm   0.7 mph 86% 0 in 168 W/m2
07:29 69.1 °F 63.7 °F 30 in SW 1.6 mph 6 mph 83% 0 in 184 W/m2
07:34 69.6 °F 63.1 °F 30 in SW 5.4 mph 6 mph 80% 0 in 204 W/m2
07:39 69.6 °F 62.1 °F 30 in SSW 2.2 mph 7.6 mph 77% 0 in 206 W/m2
07:44 70.2 °F 61.9 °F 30 in SSW 4.5 mph 7.6 mph 75% 0 in 219 W/m2
07:49 70.2 °F 61.5 °F 30 in SW 5.4 mph 7.6 mph 74% 0 in 233 W/m2
07:54 70 °F 61.3 °F 30 in SW 2.2 mph 8.3 mph 74% 0 in 245 W/m2
07:59 70.3 °F 61.7 °F 30 in SSW 6.9 mph 9.8 mph 74% 0 in 261 W/m2
08:09 70.2 °F 60.6 °F 30 in SW 6.9 mph 9.8 mph 72% 0 in 290 W/m2
08:14 69.3 °F 60.3 °F 30 in SW 6 mph 12.1 mph 73% 0 in 288 W/m2
08:19 68.9 °F 59.9 °F 30 in SW 6.9 mph 12.1 mph 73% 0 in 301 W/m2
08:24 69.1 °F 60.4 °F 30 in SW 7.6 mph 9.8 mph 74% 0 in 292 W/m2
08:29 69.3 °F 60.3 °F 30 in SW 4.5 mph 9.8 mph 73% 0 in 310 W/m2
08:34 70.3 °F 61 °F 30 in SW 6 mph 9.8 mph 72% 0 in 348 W/m2
08:39 70.3 °F 59.7 °F 30 in SW 3.8 mph 12.1 mph 69% 0 in 366 W/m2
08:44 70.2 °F 59.9 °F 30 in SW 7.6 mph 12.1 mph 70% 0 in 379 W/m2
08:49 70.2 °F 59.5 °F 30 in SSW 6 mph 11.4 mph 69% 0 in 392 W/m2
08:54 70.3 °F 59.4 °F 30 in SSW 4.5 mph 11.4 mph 68% 0 in 405 W/m2
08:59 70.5 °F 59.5 °F 30 in SSW 6 mph 11.4 mph 68% 0 in 421 W/m2
09:04 70.3 °F 58.8 °F 30 in SW 8.3 mph 12.1 mph 67% 0 in 437 W/m2
09:09 70.3 °F 58.8 °F 30 in SW 6.9 mph 12.1 mph 67% 0 in 452 W/m2
09:14 70.7 °F 60.1 °F 30 in SW 6 mph 12.1 mph 69% 0 in 468 W/m2
09:19 70.5 °F 60.3 °F 30 in SW 5.4 mph 13.6 mph 70% 0 in 482 W/m2
09:25 70.3 °F 61 °F 30 in SW 8.3 mph 13.6 mph 72% 0 in 502 W/m2
09:29 70.3 °F 61.3 °F 30 in SW 8.3 mph 13.6 mph 73% 0 in 508 W/m2
09:34 70.3 °F 61.7 °F 30 in SSW 9.2 mph 13.6 mph 74% 0 in 529 W/m2
09:39 70.2 °F 61.5 °F 30 in SSW 8.3 mph 13 mph 74% 0 in 547 W/m2
09:45 70.2 °F 61.9 °F 30 in SSW 8.3 mph 13 mph 75% 0 in 572 W/m2
09:50 70 °F 61.3 °F 30 in SSW 8.3 mph 13 mph 74% 0 in 584 W/m2
09:55 70.3 °F 62.1 °F 30 in SSW 5.4 mph 13 mph 75% 0 in 631 W/m2
10:00 70.5 °F 61.9 °F 30 in SSW 5.4 mph 11.4 mph 74% 0 in 658 W/m2
10:06 69.8 °F 61.2 °F 30.1 in SSW 7.6 mph 13 mph 74% 0 in 251 W/m2
10:11 69.4 °F 61.9 °F 30.1 in SSW 7.6 mph 13 mph 77% 0 in 738 W/m2
10:16 70.3 °F 62.4 °F 30.1 in SSW 6.9 mph 13.6 mph 76% 0 in 617 W/m2
10:21 70 °F 62.4 °F 30.1 in SSW 4.5 mph 14.5 mph 77% 0 in 222 W/m2
10:26 69.3 °F 63.7 °F 30.1 in SW 10.7 mph 14.5 mph 82% 0 in 280 W/m2
10:31 68.5 °F 63.1 °F 30.1 in SW 10.7 mph 14.5 mph 83% 0 in 676 W/m2
10:36 68.5 °F 63.1 °F 30.1 in SSW 10.7 mph 14.5 mph 83% 0 in 308 W/m2
10:41 68.5 °F 63.1 °F 30.1 in SSW 7.6 mph 14.5 mph 83% 0 in 322 W/m2
10:46 68.2 °F 63.1 °F 30.1 in SW 8.3 mph 16.8 mph 84% 0 in 244 W/m2
10:51 68.2 °F 63.1 °F 30.1 in SW 9.8 mph 16.8 mph 84% 0 in 729 W/m2
10:56 68.5 °F 63.5 °F 30.1 in SW 9.2 mph 13 mph 84% 0 in 715 W/m2
11:01 68.5 °F 63.5 °F 30.1 in SW 6.9 mph 13.6 mph 84% 0 in 871 W/m2
11:06 69.1 °F 63.7 °F 30.1 in SW 10.7 mph 14.5 mph 83% 0 in 303 W/m2
11:11 68.5 °F 63.1 °F 30.1 in SW 7.6 mph 15.2 mph 83% 0 in 373 W/m2
11:16 68.5 °F 63.1 °F 30.1 in SSW 7.6 mph 15.2 mph 83% 0 in 774 W/m2
11:21 69.6 °F 64.2 °F 30.1 in SSW 6.9 mph 13.6 mph 83% 0 in 794 W/m2
11:26 70.2 °F 63.3 °F 30 in SSW 9.2 mph 14.5 mph 79% 0 in 806 W/m2
11:31 69.6 °F 63.1 °F 30 in SSW 10.7 mph 14.5 mph 80% 0 in 806 W/m2
11:36 69.3 °F 63.9 °F 30 in SW 11.4 mph 14.5 mph 83% 0 in 803 W/m2
11:41 69.1 °F 63.3 °F 30.1 in SSW 8.3 mph 14.5 mph 82% 0 in 818 W/m2
11:46 69.3 °F 63.7 °F 30 in SSW 10.7 mph 15.2 mph 82% 0 in 808 W/m2
11:51 69.3 °F 63.9 °F 30.1 in SSW 7.6 mph 15.2 mph 83% 0 in 766 W/m2
11:56 69.6 °F 63.7 °F 30 in South 7.6 mph 14.5 mph 81% 0 in 772 W/m2
12:01 69.8 °F 63.3 °F 30.1 in South 8.3 mph 10.7 mph 80% 0 in 806 W/m2
12:06 70 °F 63.7 °F 30.1 in South 6.9 mph 10.7 mph 80% 0 in 808 W/m2
12:11 70 °F 63.1 °F 30.1 in South 9.2 mph 11.4 mph 79% 0 in 818 W/m2
12:16 70.3 °F 63.9 °F 30.1 in South 6.9 mph 11.4 mph 80% 0 in 795 W/m2
12:21 70.3 °F 63.1 °F 30.1 in SSW 7.6 mph 11.4 mph 78% 0 in 722 W/m2
12:26 70.3 °F 63.1 °F 30.1 in SSW 6 mph 10.7 mph 78% 0 in 791 W/m2
12:32 70.2 °F 63 °F 30.1 in SSW 5.4 mph 11.4 mph 78% 0 in 748 W/m2
12:37 70.2 °F 63.3 °F 30.1 in SSW 7.6 mph 11.4 mph 79% 0 in 796 W/m2
12:42 69.8 °F 63 °F 30 in SSW 7.6 mph 11.4 mph 79% 0 in 821 W/m2
12:47 69.6 °F 63.1 °F 30 in SSW 5.4 mph 11.4 mph 80% 0 in 842 W/m2
12:52 70 °F 63.1 °F 30 in SSW 4.5 mph 9.8 mph 79% 0 in 839 W/m2
12:57 70.5 °F 62.6 °F 30 in SSW 4.5 mph 9.8 mph 76% 0 in 775 W/m2
13:02 70.2 °F 62.2 °F 30 in SSW 4.5 mph 9.2 mph 76% 0 in 687 W/m2
13:07 70.2 °F 61.9 °F 30 in SSW 3.8 mph 9.8 mph 75% 0 in 817 W/m2
13:12 70.2 °F 62.6 °F 30 in SSW 4.5 mph 11.4 mph 77% 0 in 811 W/m2
13:17 70.2 °F 62.6 °F 30 in South 6 mph 11.4 mph 77% 0 in 803 W/m2
13:22 70.2 °F 62.2 °F 30 in South 4.5 mph 9.8 mph 76% 0 in 801 W/m2
13:27 70.7 °F 62.1 °F 30 in South 4.5 mph 9.8 mph 74% 0 in 802 W/m2
13:32 70.3 °F 62.1 °F 30 in South 6.9 mph 9.2 mph 75% 0 in 796 W/m2
13:37 70.2 °F 62.6 °F 30 in SSW 5.4 mph 10.7 mph 77% 0 in 791 W/m2
13:42 70.3 °F 62.1 °F 30 in SSW 5.4 mph 10.7 mph 75% 0 in 787 W/m2
13:48 71.1 °F 63.1 °F 30 in South 5.4 mph 9.8 mph 76% 0 in 771 W/m2
13:53 70.3 °F 62.1 °F 30 in South 4.5 mph 9.8 mph 75% 0 in 761 W/m2
13:58 70 °F 62.8 °F 30 in South 4.5 mph 9.8 mph 78% 0 in 764 W/m2
14:03 70.3 °F 63.1 °F 30 in SSW 6 mph 9.8 mph 78% 0 in 759 W/m2
14:08 71.1 °F 63.9 °F 30 in South 6 mph 9.2 mph 78% 0 in 760 W/m2
14:13 70.5 °F 63 °F 30 in South 6.9 mph 10.7 mph 77% 0 in 752 W/m2
14:18 70.3 °F 62.8 °F 30 in SSW 4.5 mph 10.7 mph 77% 0 in 745 W/m2
14:23 70 °F 63.1 °F 30 in South 6 mph 10.7 mph 79% 0 in 732 W/m2
14:28 70.7 °F 63.9 °F 30 in SSW 4.5 mph 10.7 mph 79% 0 in 728 W/m2
14:33 71.2 °F 64 °F 30 in SSW 3.1 mph 9.2 mph 78% 0 in 731 W/m2
14:38 70.7 °F 63.5 °F 30 in SSW 5.4 mph 9.8 mph 78% 0 in 735 W/m2
14:43 70.7 °F 63.5 °F 30 in South 5.4 mph 10.7 mph 78% 0 in 731 W/m2
14:48 70.7 °F 63.5 °F 30 in South 7.6 mph 11.4 mph 78% 0 in 710 W/m2
14:53 70.5 °F 63.3 °F 30 in South 4.5 mph 11.4 mph 78% 0 in 697 W/m2
14:58 71.1 °F 64.2 °F 30 in South 6.9 mph 11.4 mph 79% 0 in 709 W/m2
15:03 71.2 °F 64.4 °F 30 in South 6 mph 10.7 mph 79% 0 in 689 W/m2
15:08 71.1 °F 63.9 °F 30 in SSW 5.4 mph 10.7 mph 78% 0 in 682 W/m2
15:13 71.1 °F 64.2 °F 30 in SSW 5.4 mph 11.4 mph 79% 0 in 676 W/m2
15:18 70.7 °F 63.9 °F 30 in South 7.6 mph 11.4 mph 79% 0 in 684 W/m2
15:23 71.1 °F 64.2 °F 30 in South 5.4 mph 10.7 mph 79% 0 in 653 W/m2
15:28 71.2 °F 64.8 °F 30 in South 5.4 mph 11.4 mph 80% 0 in 631 W/m2
15:33 71.6 °F 64 °F 30 in South 7.6 mph 12.1 mph 77% 0 in 619 W/m2
15:38 70.7 °F 63.5 °F 30 in South 4.5 mph 12.1 mph 78% 0 in 614 W/m2
15:43 71.2 °F 64 °F 30 in South 3.1 mph 11.4 mph 78% 0 in 598 W/m2
15:48 72 °F 63.3 °F 30 in South 0.7 mph 10.7 mph 74% 0 in 590 W/m2
15:53 72.9 °F 64.6 °F 30 in South 6 mph 10.7 mph 75% 0 in 571 W/m2
15:58 72.3 °F 64.4 °F 30 in South 6 mph 9.2 mph 76% 0 in 577 W/m2
16:03 71.8 °F 64.2 °F 30 in South 6 mph 11.4 mph 77% 0 in 568 W/m2
16:08 71.6 °F 64.4 °F 30 in SSW 7.6 mph 13 mph 78% 0 in 564 W/m2
16:13 72 °F 65.1 °F 30 in South 4.5 mph 13 mph 79% 0 in 558 W/m2
16:18 72.7 °F 64.8 °F 30 in SSW 4.5 mph 10.7 mph 76% 0 in 554 W/m2
16:23 72.7 °F 64.2 °F 30 in South 6 mph 9.2 mph 75% 0 in 492 W/m2
16:43 71.8 °F 64.9 °F 30 in SSW 6 mph 10.7 mph 79% 0 in 510 W/m2
16:48 71.1 °F 65.3 °F 30 in SSW 6 mph 10.7 mph 82% 0 in 287 W/m2
16:53 70.9 °F 65.1 °F 30 in SSW 8.3 mph 10.7 mph 82% 0 in 341 W/m2
16:58 71.1 °F 66 °F 30 in SSW 3.8 mph 10.7 mph 84% 0 in 485 W/m2
17:03 72.1 °F 65.7 °F 30 in South 6 mph 9.8 mph 80% 0 in 493 W/m2
17:08 72.1 °F 65.7 °F 30 in South 4.5 mph 9.8 mph 80% 0 in 426 W/m2
17:13 71.4 °F 64.9 °F 30 in South 6 mph 9.8 mph 80% 0 in 190 W/m2
17:18 70.7 °F 64.9 °F 30.1 in South 5.4 mph 9.8 mph 82% 0 in 222 W/m2
17:23 70.3 °F 65.3 °F 30 in SSW 5.4 mph 9.8 mph 84% 0 in 196 W/m2
17:28 69.8 °F 64.8 °F 30 in SSW 9.8 mph 11.4 mph 84% 0 in 186 W/m2
17:33 69.1 °F 64.8 °F 30 in SSW 3.8 mph 11.4 mph 86% 0 in 131 W/m2
17:38 68.4 °F 64.4 °F 30 in SSW 4.5 mph 12.1 mph 87% 0 in 142 W/m2
17:43 68.4 °F 64.9 °F 30 in South 3.8 mph 12.1 mph 89% 0 in 150 W/m2
17:48 68.5 °F 64.9 °F 30 in SSW 3.8 mph 9.8 mph 88% 0 in 119 W/m2
17:53 68.7 °F 65.5 °F 30 in SSW 3.1 mph 9.8 mph 89% 0 in 96 W/m2
17:59 68.7 °F 65.1 °F 30 in SSW 3.8 mph 7.6 mph 88% 0 in 117 W/m2
18:04 68.5 °F 64.9 °F 30.1 in SSW 3.1 mph 8.3 mph 88% 0 in 146 W/m2
18:09 68.7 °F 65.1 °F 30 in SSW 6 mph 8.3 mph 88% 0 in 148 W/m2
18:14 68.7 °F 64.8 °F 30 in SSW 3.8 mph 9.2 mph 87% 0 in 124 W/m2
18:19 68.7 °F 65.1 °F 30.1 in SSW 1.6 mph 9.2 mph 88% 0 in 108 W/m2
18:24 68.7 °F 65.1 °F 30 in SSW 4.5 mph 8.3 mph 88% 0 in 104 W/m2
18:29 68.4 °F 64.8 °F 30 in SSW 3.8 mph 6.9 mph 88% 0 in 112 W/m2
18:34 68.2 °F 64.6 °F 30.1 in SSW 2.2 mph 6.9 mph 88% 0 in 94 W/m2
18:39 68 °F 64.2 °F 30.1 in South 1.6 mph 6.9 mph 88% 0 in 102 W/m2
18:44 68 °F 64.2 °F 30 in South 2.2 mph 6 mph 88% 0 in 99 W/m2
18:49 68.2 °F 64.6 °F 30.1 in South 3.8 mph 5.4 mph 88% 0 in 83 W/m2
18:54 68.2 °F 64.6 °F 30.1 in SSW 2.2 mph 6 mph 88% 0 in 82 W/m2
18:59 68 °F 64.2 °F 30.1 in SSW 3.1 mph 6 mph 88% 0 in 85 W/m2
19:04 67.8 °F 64.6 °F 30.1 in SSW 3.8 mph 6 mph 89% 0 in 86 W/m2
19:09 67.6 °F 64 °F 30.1 in SSW 1.6 mph 6 mph 88% 0 in 75 W/m2
19:14 67.6 °F 64.2 °F 30.1 in SSW 1.6 mph 5.4 mph 89% 0 in 57 W/m2
19:19 67.6 °F 64.2 °F 30.1 in SSE 2.2 mph 4.5 mph 89% 0 in 43 W/m2
19:24 67.5 °F 63.9 °F 30.1 in South 3.1 mph 5.4 mph 88% 0 in 36 W/m2
19:29 67.5 °F 63.5 °F 30.1 in SSW 1.6 mph 5.4 mph 87% 0 in 42 W/m2
19:34 67.3 °F 63 °F 30.1 in SSW 1.6 mph 5.4 mph 86% 0 in 43 W/m2
19:39 67.5 °F 63.1 °F 30.1 in SSW 1.6 mph 4.5 mph 86% 0 in 31 W/m2
19:44 67.3 °F 63.7 °F 30.1 in SSW 3.1 mph 4.5 mph 88% 0 in 23 W/m2
19:49 67.3 °F 63.7 °F 30.1 in SSW 1.6 mph 4.5 mph 88% 0 in 13 W/m2
19:54 66.9 °F 63.7 °F 30.1 in South 3.1 mph 6 mph 89% 0 in 6 W/m2
19:59 66.7 °F 63.3 °F 30.1 in South 3.1 mph 6 mph 89% 0 in 4 W/m2
20:04 66.6 °F 63.7 °F 30.1 in SSW 3.1 mph 6 mph 90% 0 in 5 W/m2
20:09 66.6 °F 63.9 °F 30.1 in SSW 0.7 mph 6 mph 91% 0 in 3 W/m2
20:14 66.4 °F 64 °F 30.1 in South 1.6 mph 6 mph 92% 0 in 2 W/m2
20:19 66.4 °F 63.7 °F 30.1 in South 1.6 mph 4.5 mph 91% 0 in 0 W/m2
20:24 66.2 °F 63.5 °F 30.1 in South 1.6 mph 4.5 mph 91% 0 in 0 W/m2
20:29 66.2 °F 63.5 °F 30.1 in South 2.2 mph 3.8 mph 91% 0 in 0 W/m2
20:34 66 °F 63.3 °F 30.1 in SSE 2.2 mph 4.5 mph 91% 0 in 0 W/m2
20:39 66.2 °F 63.1 °F 30.1 in South 2.2 mph 4.5 mph 90% 0 in 0 W/m2
20:44 66.2 °F 63.5 °F 30.1 in South 0.7 mph 4.5 mph 91% 0 in 0 W/m2
20:49 66.2 °F 63.5 °F 30.1 in South 1.6 mph 4.5 mph 91% 0 in 0 W/m2
20:54 66.2 °F 63.9 °F 30.1 in South 1.6 mph 3.8 mph 92% 0 in 0 W/m2
20:59 66 °F 63.7 °F 30.1 in Calm   3.8 mph 92% 0 in 0 W/m2
21:04 65.8 °F 63.1 °F 30.1 in South 1.6 mph 3.8 mph 91% 0 in 0 W/m2
21:09 65.8 °F 63.1 °F 30.1 in Calm   3.8 mph 91% 0 in 0 W/m2
21:14 66 °F 63 °F 30.1 in Calm   3.8 mph 90% 0 in 0 W/m2
21:17 66 °F 63 °F 30.1 in Calm   3.1 mph 90% 0 in 0 W/m2
21:22 66 °F 62.8 °F 30.1 in SSE 2.2 mph 3.1 mph 89% 0 in 0 W/m2
21:27 66 °F 62.8 °F 30.1 in Calm   3.1 mph 89% 0 in 0 W/m2
21:32 66 °F 62.8 °F 30.1 in Calm   3.1 mph 89% 0 in 0 W/m2
21:37 65.8 °F 62.4 °F 30.1 in Calm   2.2 mph 89% 0 in 0 W/m2
21:42 65.8 °F 62.2 °F 30.1 in Calm   3.1 mph 88% 0 in 0 W/m2
21:47 65.8 °F 62.2 °F 30.1 in Calm   3.1 mph 88% 0 in 0 W/m2
21:52 65.8 °F 61.9 °F 30.1 in Calm   3.1 mph 87% 0 in 0 W/m2
21:57 66 °F 62.1 °F 30.1 in SE 0.7 mph 3.1 mph 87% 0 in 0 W/m2
22:02 66 °F 61.7 °F 30.1 in SSE 0.7 mph 3.1 mph 86% 0 in 0 W/m2
22:12 66 °F 61.7 °F 30.1 in Calm   3.1 mph 86% 0 in 0 W/m2
22:17 66.2 °F 61.2 °F 30.1 in Calm   3.1 mph 84% 0 in 0 W/m2
22:22 66.2 °F 61.2 °F 30.1 in East 1.6 mph 3.8 mph 84% 0 in 0 W/m2
22:27 66.4 °F 61.3 °F 30.1 in Calm   3.8 mph 84% 0 in 0 W/m2
22:32 66.2 °F 61.5 °F 30.1 in Calm   3.1 mph 85% 0 in 0 W/m2
22:37 66.2 °F 61.5 °F 30.1 in Calm   1.6 mph 85% 0 in 0 W/m2
22:42 66.2 °F 61.5 °F 30.1 in Calm   1.6 mph 85% 0 in 0 W/m2
22:47 66.2 °F 61.5 °F 30.1 in Calm   1.6 mph 85% 0 in 0 W/m2
22:52 66 °F 61.7 °F 30.1 in Calm     86% 0 in 0 W/m2
22:57 66 °F 61.7 °F 30.1 in Calm   0.7 mph 86% 0 in 0 W/m2
23:02 66 °F 61.7 °F 30.1 in Calm   1.6 mph 86% 0 in 0 W/m2
23:07 66 °F 61.3 °F 30.1 in Calm   2.2 mph 85% 0 in 0 W/m2
23:12 66 °F 61.3 °F 30.1 in ESE 1.6 mph 3.1 mph 85% 0 in 0 W/m2
23:17 66.2 °F 61.5 °F 30.1 in East 3.1 mph 4.5 mph 85% 0 in 0 W/m2
23:22 66.2 °F 61.5 °F 30.1 in East 0.7 mph 4.5 mph 85% 0 in 0 W/m2
23:27 66.2 °F 61.5 °F 30.1 in Calm   4.5 mph 85% 0 in 0 W/m2
23:32 66 °F 61.3 °F 30.1 in Calm   3.1 mph 85% 0 in 0 W/m2
23:37 66 °F 61.3 °F 30.1 in East 0.7 mph 3.8 mph 85% 0 in 0 W/m2
23:42 66 °F 61.2 °F 30.1 in ENE 2.2 mph 3.8 mph 84% 0 in 0 W/m2
23:47 66 °F 60.6 °F 30.1 in Calm   3.8 mph 83% 0 in 0 W/m2
23:52 66 °F 61.2 °F 30.1 in ESE 0.7 mph 3.1 mph 84% 0 in 0 W/m2
23:57 66 °F 61.2 °F 30.1 in Calm   2.2 mph 84% 0 in 0 W/m2
Northern Hawkes Bay. New Zealand Historic Data
Compliments of Weather Underground - 2 mb